createdAt,value
2023-01-20T00:01:03.828Z,99731.50
2023-01-20T00:03:30.285Z,99732.22
2023-01-20T00:05:56.667Z,99734.69
2023-01-20T00:08:23.098Z,99741.34
2023-01-20T00:10:49.466Z,99736.25
2023-01-20T00:13:15.841Z,99738.81
2023-01-20T00:15:42.270Z,99742.25
2023-01-20T00:18:08.683Z,99747.38
2023-01-20T00:20:35.320Z,99753.41
2023-01-20T00:23:01.954Z,99756.78
2023-01-20T00:25:28.330Z,99755.16
2023-01-20T00:27:54.751Z,99747.47
2023-01-20T00:30:21.890Z,99757.09
2023-01-20T00:32:48.325Z,99754.47
2023-01-20T00:35:15.202Z,99755.31
2023-01-20T00:37:42.958Z,99756.72
2023-01-20T00:40:09.899Z,99759.22
2023-01-20T00:42:36.299Z,99751.72
2023-01-20T00:45:02.992Z,99756.69
2023-01-20T00:47:29.400Z,99756.63
2023-01-20T00:49:55.739Z,99753.91
2023-01-20T00:52:22.465Z,99761.00
2023-01-20T00:54:48.897Z,99758.44
2023-01-20T00:57:15.247Z,99759.47
2023-01-20T00:59:41.587Z,99760.13
2023-01-20T01:02:08.080Z,99759.03
2023-01-20T01:04:34.608Z,99765.22
2023-01-20T01:07:00.964Z,99763.59
2023-01-20T01:09:27.405Z,99767.88
2023-01-20T01:11:53.804Z,99774.53
2023-01-20T01:14:20.209Z,99773.81
2023-01-20T01:16:46.546Z,99773.72
2023-01-20T01:19:12.994Z,99778.88
2023-01-20T01:21:39.482Z,99777.94
2023-01-20T01:24:06.326Z,99786.63
2023-01-20T01:26:32.733Z,99789.09
2023-01-20T01:28:59.283Z,99793.34
2023-01-20T01:31:25.826Z,99803.59
2023-01-20T01:33:52.203Z,99802.03
2023-01-20T01:36:18.722Z,99808.88
2023-01-20T01:38:45.163Z,99801.09
2023-01-20T01:41:25.289Z,99806.13
2023-01-20T01:44:09.608Z,99816.47
2023-01-20T01:46:36.893Z,99827.81
2023-01-20T01:49:13.949Z,99824.44
2023-01-20T01:51:46.510Z,99829.75
2023-01-20T01:54:17.036Z,99820.31
2023-01-20T01:56:45.518Z,99822.59
2023-01-20T01:59:14.062Z,99822.63
2023-01-20T02:01:46.690Z,99832.22
2023-01-20T02:04:15.931Z,99835.50
2023-01-20T02:07:04.488Z,99844.91
2023-01-20T02:09:31.483Z,99834.81
2023-01-20T02:12:03.789Z,99842.81
2023-01-20T02:14:35.907Z,99839.34
2023-01-20T02:17:05.282Z,99835.44
2023-01-20T02:19:54.942Z,99844.06
2023-01-20T02:22:30.944Z,99838.84
2023-01-20T02:25:15.761Z,99834.50
2023-01-20T02:28:27.688Z,99840.50
2023-01-20T02:31:12.948Z,99848.28
2023-01-20T02:33:46.404Z,99841.13
2023-01-20T02:36:27.913Z,99849.22
2023-01-20T02:39:03.203Z,99848.19
2023-01-20T02:41:42.029Z,99849.28
2023-01-20T02:44:20.601Z,99854.38
2023-01-20T02:46:53.197Z,99863.25
2023-01-20T02:49:27.363Z,99863.25
2023-01-20T02:52:01.801Z,99862.22
2023-01-20T02:54:32.757Z,99867.44
2023-01-20T02:57:02.238Z,99870.81
2023-01-20T02:59:32.585Z,99872.63
2023-01-20T03:02:10.984Z,99880.41
2023-01-20T03:04:41.698Z,99876.19
2023-01-20T03:07:11.888Z,99882.44
2023-01-20T03:09:43.798Z,99883.53
2023-01-20T03:12:37.678Z,99882.25
2023-01-20T03:15:04.571Z,99882.47
2023-01-20T03:17:32.569Z,99891.09
2023-01-20T03:19:59.142Z,99902.25
2023-01-20T03:22:26.503Z,99900.56
2023-01-20T03:24:54.554Z,99906.34
2023-01-20T03:27:20.913Z,99909.78
2023-01-20T03:29:47.323Z,99909.22
2023-01-20T03:32:14.870Z,99910.91
2023-01-20T03:34:43.189Z,99914.31
2023-01-20T03:37:12.503Z,99913.72
2023-01-20T03:39:39.849Z,99918.00
2023-01-20T03:42:15.864Z,99922.47
2023-01-20T03:45:09.680Z,99922.72
2023-01-20T03:48:00.682Z,99923.47
2023-01-20T03:50:40.768Z,99929.47
2023-01-20T03:53:35.305Z,99937.44
2023-01-20T03:56:01.603Z,99935.84
2023-01-20T03:58:32.569Z,99944.63
2023-01-20T04:01:01.317Z,99951.59
2023-01-20T04:03:45.993Z,99949.06
2023-01-20T04:06:14.878Z,99935.19
2023-01-20T04:08:47.126Z,99944.84
2023-01-20T04:11:13.737Z,99958.94
2023-01-20T04:13:40.251Z,99959.16
2023-01-20T04:16:13.113Z,99951.31
2023-01-20T04:18:46.464Z,99962.44
2023-01-20T04:21:33.865Z,99959.38
2023-01-20T04:24:06.724Z,99962.97
2023-01-20T04:26:33.126Z,99960.28
2023-01-20T04:28:59.618Z,99968.31
2023-01-20T04:31:31.061Z,99964.09
2023-01-20T04:33:57.833Z,99962.22
2023-01-20T04:36:24.252Z,99966.66
2023-01-20T04:38:50.604Z,99952.91
2023-01-20T04:41:16.981Z,99962.63
2023-01-20T04:43:45.195Z,99961.63
2023-01-20T04:46:15.264Z,99955.63
2023-01-20T04:48:43.860Z,99961.63
2023-01-20T04:51:10.400Z,99965.19
2023-01-20T04:53:36.739Z,99954.81
2023-01-20T04:56:03.351Z,99961.72
2023-01-20T04:58:29.744Z,99966.91
2023-01-20T05:00:56.162Z,99967.66
2023-01-20T05:03:22.504Z,99975.66
2023-01-20T05:05:54.164Z,99972.28
2023-01-20T05:08:20.791Z,99976.53
2023-01-20T05:10:47.375Z,99979.88
2023-01-20T05:13:13.781Z,99984.97
2023-01-20T05:15:41.942Z,99982.34
2023-01-20T05:18:08.444Z,99990.34
2023-01-20T05:20:34.836Z,99992.75
2023-01-20T05:23:01.588Z,99997.28
2023-01-20T05:25:28.057Z,100001.69
2023-01-20T05:27:54.495Z,100004.53
2023-01-20T05:30:21.284Z,100001.88
2023-01-20T05:32:51.848Z,100009.78
2023-01-20T05:35:18.480Z,100010.13
2023-01-20T05:37:45.051Z,100019.66
2023-01-20T05:40:11.800Z,100018.63
2023-01-20T05:42:38.221Z,100018.63
2023-01-20T05:45:05.196Z,100019.50
2023-01-20T05:47:46.742Z,100034.44
2023-01-20T05:50:13.310Z,100033.56
2023-01-20T05:52:39.776Z,100033.53
2023-01-20T05:55:06.365Z,100033.59
2023-01-20T05:57:32.844Z,100038.78
2023-01-20T05:59:59.210Z,100040.63
2023-01-20T06:02:25.650Z,100047.44
2023-01-20T06:04:52.007Z,100041.31
2023-01-20T06:07:18.488Z,100041.50
2023-01-20T06:09:44.897Z,100049.59
2023-01-20T06:12:11.328Z,100052.84
2023-01-20T06:14:37.722Z,100052.88
2023-01-20T06:17:04.184Z,100059.06
2023-01-20T06:19:30.582Z,100062.47
2023-01-20T06:21:57.062Z,100058.94
2023-01-20T06:24:23.649Z,100060.91
2023-01-20T06:26:51.284Z,100066.06
2023-01-20T06:29:18.217Z,100083.66
2023-01-20T06:31:45.565Z,100078.34
2023-01-20T06:34:12.431Z,100082.81
2023-01-20T06:36:39.018Z,100084.38
2023-01-20T06:39:05.474Z,100084.34
2023-01-20T06:41:32.074Z,100086.25
2023-01-20T06:43:58.505Z,100082.75
2023-01-20T06:46:25.024Z,100089.75
2023-01-20T06:48:52.014Z,100079.19
2023-01-20T06:51:20.294Z,100087.84
2023-01-20T06:53:47.472Z,100083.63
2023-01-20T06:56:15.481Z,100087.19
2023-01-20T06:58:42.116Z,100092.41
2023-01-20T07:01:12.784Z,100096.78
2023-01-20T07:03:41.300Z,100095.97
2023-01-20T07:06:15.575Z,100099.56
2023-01-20T07:08:43.833Z,100104.91
2023-01-20T07:11:10.336Z,100109.41
2023-01-20T07:13:36.717Z,100113.56
2023-01-20T07:16:03.229Z,100109.13
2023-01-20T07:18:29.639Z,100110.75
2023-01-20T07:20:57.067Z,100123.19
2023-01-20T07:23:24.825Z,100132.81
2023-01-20T07:26:22.146Z,100135.34
2023-01-20T07:28:49.082Z,100131.47
2023-01-20T07:31:17.882Z,100136.63
2023-01-20T07:33:44.765Z,100140.28
2023-01-20T07:36:13.169Z,100140.28
2023-01-20T07:38:39.981Z,100138.69
2023-01-20T07:41:11.567Z,100150.47
2023-01-20T07:43:37.959Z,100150.50
2023-01-20T07:46:05.163Z,100152.28
2023-01-20T07:48:32.849Z,100147.53
2023-01-20T07:51:07.835Z,100146.56
2023-01-20T07:53:35.972Z,100151.66
2023-01-20T07:56:05.177Z,100147.53
2023-01-20T07:58:32.350Z,100147.63
2023-01-20T08:01:10.273Z,100150.31
2023-01-20T08:03:37.374Z,100164.22
2023-01-20T08:06:09.059Z,100174.84
2023-01-20T08:08:36.370Z,100182.72
2023-01-20T08:11:03.673Z,100182.66
2023-01-20T08:13:31.560Z,100185.03
2023-01-20T08:16:06.795Z,100187.44
2023-01-20T08:18:33.916Z,100178.78
2023-01-20T08:21:00.332Z,100186.59
2023-01-20T08:23:26.672Z,100186.38
2023-01-20T08:26:01.947Z,100197.00
2023-01-20T08:28:29.371Z,100188.56
2023-01-20T08:31:02.390Z,100200.00
2023-01-20T08:33:28.924Z,100207.97
2023-01-20T08:35:56.698Z,100198.44
2023-01-20T08:38:23.051Z,100208.25
2023-01-20T08:40:49.488Z,100216.28
2023-01-20T08:43:15.894Z,100218.88
2023-01-20T08:45:43.625Z,100218.00
2023-01-20T08:48:10.425Z,100224.25
2023-01-20T08:50:36.857Z,100223.34
2023-01-20T08:53:03.447Z,100233.19
2023-01-20T08:55:31.185Z,100221.88
2023-01-20T08:57:57.593Z,100224.44
2023-01-20T09:00:24.230Z,100231.41
2023-01-20T09:02:50.800Z,100226.16
2023-01-20T09:05:17.566Z,100220.88
2023-01-20T09:07:45.158Z,100229.66
2023-01-20T09:10:12.307Z,100235.81
2023-01-20T09:12:39.512Z,100231.56
2023-01-20T09:15:07.566Z,100231.69
2023-01-20T09:17:37.026Z,100235.44
2023-01-20T09:20:03.599Z,100237.16
2023-01-20T09:22:30.000Z,100231.88
2023-01-20T09:24:56.408Z,100241.44
2023-01-20T09:27:23.333Z,100246.81
2023-01-20T09:29:49.731Z,100242.44
2023-01-20T09:32:16.117Z,100242.53
2023-01-20T09:34:42.574Z,100235.56
2023-01-20T09:37:27.457Z,100247.81
2023-01-20T09:40:12.648Z,100242.56
2023-01-20T09:43:34.843Z,100253.13
2023-01-20T09:46:08.885Z,100253.22
2023-01-20T09:49:02.177Z,100242.75
2023-01-20T09:52:00.029Z,100255.06
2023-01-20T09:54:33.815Z,100247.22
2023-01-20T09:57:02.066Z,100249.91
2023-01-20T09:59:38.852Z,100255.16
2023-01-20T10:02:13.401Z,100242.97
2023-01-20T10:04:48.406Z,100250.03
2023-01-20T10:07:20.670Z,100257.91
2023-01-20T10:10:00.142Z,100250.03
2023-01-20T10:12:36.485Z,100264.09
2023-01-20T10:15:13.589Z,100254.53
2023-01-20T10:17:47.599Z,100258.91
2023-01-20T10:20:35.408Z,100257.16
2023-01-20T10:23:14.178Z,100258.97
2023-01-20T10:25:58.802Z,100264.19
2023-01-20T10:28:32.198Z,100253.75
2023-01-20T10:31:03.131Z,100252.03
2023-01-20T10:33:39.447Z,100245.88
2023-01-20T10:36:13.780Z,100248.53
2023-01-20T10:39:09.858Z,100249.44
2023-01-20T10:41:38.653Z,100243.34
2023-01-20T10:44:14.635Z,100247.72
2023-01-20T10:46:59.681Z,100243.34
2023-01-20T10:49:37.356Z,100238.94
2023-01-20T10:52:24.692Z,100238.09
2023-01-20T10:55:13.249Z,100228.41
2023-01-20T10:57:39.790Z,100237.06
2023-01-20T11:00:20.403Z,100235.34
2023-01-20T11:02:49.232Z,100230.94
2023-01-20T11:05:25.873Z,100227.47
2023-01-20T11:07:54.539Z,100228.25
2023-01-20T11:10:27.256Z,100227.25
2023-01-20T11:12:57.230Z,100226.38
2023-01-20T11:15:28.300Z,100225.59
2023-01-20T11:18:16.770Z,100227.47
2023-01-20T11:20:55.455Z,100227.41
2023-01-20T11:23:23.791Z,100228.34
2023-01-20T11:25:57.947Z,100224.75
2023-01-20T11:28:25.093Z,100230.81
2023-01-20T11:30:56.765Z,100223.66
2023-01-20T11:33:26.449Z,100231.66
2023-01-20T11:36:02.262Z,100229.00
2023-01-20T11:38:41.950Z,100230.72
2023-01-20T11:41:18.340Z,100238.59
2023-01-20T11:43:44.736Z,100237.56
2023-01-20T11:46:26.224Z,100231.56
2023-01-20T11:49:19.765Z,100239.53
2023-01-20T11:51:49.153Z,100239.44
2023-01-20T11:54:37.421Z,100230.50
2023-01-20T11:57:07.562Z,100230.66
2023-01-20T11:59:36.372Z,100230.50
2023-01-20T12:02:08.844Z,100233.34
2023-01-20T12:05:02.153Z,100226.34
2023-01-20T12:07:42.954Z,100233.34
2023-01-20T12:10:26.267Z,100236.75
2023-01-20T12:13:18.111Z,100241.28
2023-01-20T12:15:52.894Z,100244.75
2023-01-20T12:18:32.320Z,100244.81
2023-01-20T12:21:18.388Z,100250.81
2023-01-20T12:24:02.884Z,100256.13
2023-01-20T12:26:29.598Z,100254.38
2023-01-20T12:28:58.322Z,100257.00
2023-01-20T12:31:25.288Z,100249.09
2023-01-20T12:33:59.339Z,100261.41
2023-01-20T12:36:44.499Z,100264.84
2023-01-20T12:39:44.774Z,100263.16
2023-01-20T12:42:29.781Z,100265.69
2023-01-20T12:45:03.157Z,100266.63
2023-01-20T12:47:47.772Z,100257.91
2023-01-20T12:50:54.144Z,100262.31
2023-01-20T12:53:39.216Z,100267.59
2023-01-20T12:56:16.164Z,100261.47
2023-01-20T12:59:04.469Z,100268.47
2023-01-20T13:01:42.633Z,100272.94
2023-01-20T13:04:30.690Z,100268.50
2023-01-20T13:07:34.705Z,100266.75
2023-01-20T13:10:33.437Z,100266.69
2023-01-20T13:13:18.179Z,100263.16
2023-01-20T13:16:06.784Z,100260.50
2023-01-20T13:18:51.381Z,100265.72
2023-01-20T13:21:21.038Z,100258.78
2023-01-20T13:23:50.382Z,100259.66
2023-01-20T13:26:17.447Z,100252.59
2023-01-20T13:28:52.386Z,100256.06
2023-01-20T13:31:46.038Z,100251.53
2023-01-20T13:34:21.253Z,100252.59
2023-01-20T13:37:03.317Z,100247.41
2023-01-20T13:39:29.841Z,100247.38
2023-01-20T13:41:56.621Z,100246.56
2023-01-20T13:44:35.339Z,100249.16
2023-01-20T13:47:02.837Z,100251.00
2023-01-20T13:49:46.726Z,100259.69
2023-01-20T13:52:13.251Z,100259.78
2023-01-20T13:54:44.825Z,100258.06
2023-01-20T13:57:20.417Z,100261.47
2023-01-20T13:59:46.956Z,100266.72
2023-01-20T14:02:24.775Z,100264.16
2023-01-20T14:04:52.520Z,100272.94
2023-01-20T14:07:30.493Z,100261.53
2023-01-20T14:09:59.365Z,100271.94
2023-01-20T14:12:26.572Z,100273.81
2023-01-20T14:14:53.481Z,100281.72
2023-01-20T14:17:23.544Z,100274.69
2023-01-20T14:19:55.361Z,100287.84
2023-01-20T14:22:27.226Z,100287.03
2023-01-20T14:24:57.253Z,100281.72
2023-01-20T14:27:31.312Z,100287.84
2023-01-20T14:30:14.358Z,100291.34
2023-01-20T14:32:41.446Z,100291.44
2023-01-20T14:35:20.994Z,100290.53
2023-01-20T14:37:50.654Z,100293.19
2023-01-20T14:40:25.127Z,100291.41
2023-01-20T14:42:56.779Z,100293.16
2023-01-20T14:45:27.923Z,100297.44
2023-01-20T14:47:55.369Z,100297.53
2023-01-20T14:50:22.102Z,100299.31
2023-01-20T14:52:48.848Z,100313.28
2023-01-20T14:55:35.970Z,100308.03
2023-01-20T14:58:32.025Z,100308.94
2023-01-20T15:01:02.739Z,100316.03
2023-01-20T15:03:30.243Z,100319.53
2023-01-20T15:06:07.051Z,100312.50
2023-01-20T15:08:33.365Z,100317.75
2023-01-20T15:11:16.457Z,100311.63
2023-01-20T15:14:09.988Z,100324.75
2023-01-20T15:16:36.326Z,100318.66
2023-01-20T15:19:18.495Z,100322.16
2023-01-20T15:21:47.942Z,100322.16
2023-01-20T15:24:17.398Z,100319.50
2023-01-20T15:26:45.373Z,100328.31
2023-01-20T15:29:29.166Z,100326.56
2023-01-20T15:31:58.117Z,100333.56
2023-01-20T15:34:26.053Z,100332.69
2023-01-20T15:36:53.582Z,100334.41
2023-01-20T15:39:22.402Z,100344.06
2023-01-20T15:41:55.231Z,100358.06
2023-01-20T15:44:22.392Z,100352.81
2023-01-20T15:46:48.832Z,100358.84
2023-01-20T15:49:17.039Z,100362.41
2023-01-20T15:51:44.880Z,100370.13
2023-01-20T15:54:13.514Z,100369.25
2023-01-20T15:56:42.165Z,100372.69
2023-01-20T15:59:13.522Z,100372.69
2023-01-20T16:01:40.029Z,100371.75
2023-01-20T16:04:06.507Z,100368.19
2023-01-20T16:06:34.086Z,100369.91
2023-01-20T16:09:01.819Z,100373.44
2023-01-20T16:11:28.232Z,100370.03
2023-01-20T16:13:54.595Z,100383.13
2023-01-20T16:16:23.594Z,100380.56
2023-01-20T16:18:50.277Z,100381.38
2023-01-20T16:21:19.034Z,100373.44
2023-01-20T16:23:45.633Z,100382.13
2023-01-20T16:26:20.357Z,100388.28
2023-01-20T16:28:46.720Z,100386.53
2023-01-20T16:31:13.534Z,100392.63
2023-01-20T16:33:39.999Z,100387.41
2023-01-20T16:36:13.066Z,100382.81
2023-01-20T16:38:39.634Z,100395.91
2023-01-20T16:41:20.681Z,100394.91
2023-01-20T16:43:47.409Z,100393.03
2023-01-20T16:46:22.563Z,100395.53
2023-01-20T16:48:49.425Z,100397.09
2023-01-20T16:51:21.925Z,100402.41
2023-01-20T16:53:49.229Z,100393.66
2023-01-20T16:56:21.783Z,100398.84
2023-01-20T16:58:49.892Z,100399.59
2023-01-20T17:01:21.050Z,100401.38
2023-01-20T17:03:48.090Z,100398.88
2023-01-20T17:06:17.810Z,100406.72
2023-01-20T17:08:45.959Z,100404.97
2023-01-20T17:11:24.938Z,100406.00
2023-01-20T17:13:51.792Z,100402.56
2023-01-20T17:16:19.268Z,100405.16
2023-01-20T17:18:50.194Z,100406.84
2023-01-20T17:21:19.555Z,100413.03
2023-01-20T17:23:51.203Z,100402.44
2023-01-20T17:26:18.272Z,100412.81
2023-01-20T17:28:44.960Z,100408.56
2023-01-20T17:31:11.784Z,100408.47
2023-01-20T17:33:38.551Z,100405.75
2023-01-20T17:36:06.246Z,100406.69
2023-01-20T17:38:34.526Z,100421.44
2023-01-20T17:41:04.760Z,100414.47
2023-01-20T17:43:32.784Z,100417.91
2023-01-20T17:45:59.796Z,100412.75
2023-01-20T17:48:26.705Z,100417.03
2023-01-20T17:50:58.930Z,100408.25
2023-01-20T17:53:26.593Z,100430.38
2023-01-20T17:56:03.093Z,100422.59
2023-01-20T17:58:37.705Z,100425.31
2023-01-20T18:01:16.606Z,100423.50
2023-01-20T18:03:43.913Z,100415.50
2023-01-20T18:06:12.162Z,100426.13
2023-01-20T18:08:39.023Z,100423.59
2023-01-20T18:11:08.357Z,100431.38
2023-01-20T18:13:35.488Z,100426.94
2023-01-20T18:16:13.142Z,100431.22
2023-01-20T18:18:40.500Z,100426.94
2023-01-20T18:21:13.489Z,100439.94
2023-01-20T18:23:40.667Z,100433.84
2023-01-20T18:26:08.617Z,100438.88
2023-01-20T18:28:35.778Z,100430.19
2023-01-20T18:31:08.361Z,100441.41
2023-01-20T18:33:47.539Z,100433.69
2023-01-20T18:36:23.464Z,100431.91
2023-01-20T18:38:55.171Z,100424.94
2023-01-20T18:41:22.039Z,100423.16
2023-01-20T18:43:49.066Z,100423.19
2023-01-20T18:46:16.324Z,100425.06
2023-01-20T18:48:47.293Z,100425.06
2023-01-20T18:51:15.901Z,100430.56
2023-01-20T18:53:44.593Z,100432.16
2023-01-20T18:56:14.156Z,100425.91
2023-01-20T18:58:45.606Z,100432.03
2023-01-20T19:01:14.476Z,100429.44
2023-01-20T19:03:41.138Z,100439.84
2023-01-20T19:06:12.040Z,100433.66
2023-01-20T19:08:40.088Z,100436.22
2023-01-20T19:11:10.026Z,100438.91
2023-01-20T19:13:36.523Z,100441.66
2023-01-20T19:16:03.009Z,100443.44
2023-01-20T19:18:29.609Z,100436.53
2023-01-20T19:20:56.169Z,100439.16
2023-01-20T19:23:22.602Z,100446.00
2023-01-20T19:25:59.396Z,100443.44
2023-01-20T19:28:25.790Z,100442.84
2023-01-20T19:30:52.234Z,100450.63
2023-01-20T19:33:18.643Z,100446.16
2023-01-20T19:35:44.985Z,100450.50
2023-01-20T19:38:11.333Z,100458.34
2023-01-20T19:40:39.187Z,100456.59
2023-01-20T19:43:05.606Z,100451.50
2023-01-20T19:45:45.498Z,100451.41
2023-01-20T19:48:12.411Z,100460.06
2023-01-20T19:50:38.825Z,100460.00
2023-01-20T19:53:05.302Z,100462.75
2023-01-20T19:55:31.939Z,100463.50
2023-01-20T19:57:58.278Z,100472.06
2023-01-20T20:00:24.804Z,100469.59
2023-01-20T20:02:54.414Z,100465.97
2023-01-20T20:05:20.850Z,100477.44
2023-01-20T20:07:47.305Z,100480.94
2023-01-20T20:10:13.991Z,100480.03
2023-01-20T20:12:40.585Z,100479.16
2023-01-20T20:15:07.301Z,100480.78
2023-01-20T20:17:33.662Z,100475.56
2023-01-20T20:20:00.040Z,100476.44
2023-01-20T20:22:26.618Z,100481.72
2023-01-20T20:24:52.997Z,100488.69
2023-01-20T20:27:19.347Z,100484.28
2023-01-20T20:29:45.741Z,100492.16
2023-01-20T20:32:12.191Z,100495.63
2023-01-20T20:34:38.659Z,100492.09
2023-01-20T20:37:05.107Z,100496.50
2023-01-20T20:39:31.473Z,100499.25
2023-01-20T20:41:57.932Z,100502.88
2023-01-20T20:44:24.318Z,100495.09
2023-01-20T20:46:50.767Z,100501.00
2023-01-20T20:49:17.865Z,100500.16
2023-01-20T20:51:44.801Z,100497.59
2023-01-20T20:54:13.906Z,100506.25
2023-01-20T20:56:40.473Z,100509.88
2023-01-20T20:59:06.854Z,100509.94
2023-01-20T21:01:34.338Z,100508.09
2023-01-20T21:04:02.071Z,100508.00
2023-01-20T21:06:29.574Z,100504.47
2023-01-20T21:08:56.465Z,100510.78
2023-01-20T21:11:24.068Z,100507.28
2023-01-20T21:13:50.550Z,100507.13
2023-01-20T21:16:20.793Z,100521.16
2023-01-20T21:18:48.276Z,100521.19
2023-01-20T21:21:19.368Z,100519.41
2023-01-20T21:23:50.770Z,100519.38
2023-01-20T21:26:17.207Z,100528.09
2023-01-20T21:28:44.377Z,100521.97
2023-01-20T21:31:15.706Z,100530.72
2023-01-20T21:33:45.706Z,100529.94
2023-01-20T21:36:13.006Z,100528.13
2023-01-20T21:38:42.898Z,100534.34
2023-01-20T21:41:10.426Z,100522.88
2023-01-20T21:43:58.947Z,100533.31
2023-01-20T21:46:27.969Z,100531.47
2023-01-20T21:49:13.163Z,100541.03
2023-01-20T21:51:57.783Z,100544.47
2023-01-20T21:54:31.051Z,100548.81
2023-01-20T21:56:58.653Z,100548.00
2023-01-20T21:59:25.409Z,100555.00
2023-01-20T22:01:52.375Z,100550.72
2023-01-20T22:04:19.178Z,100551.66
2023-01-20T22:06:45.906Z,100550.75
2023-01-20T22:09:12.682Z,100557.72
2023-01-20T22:11:39.124Z,100555.16
2023-01-20T22:14:05.670Z,100568.06
2023-01-20T22:16:32.305Z,100571.75
2023-01-20T22:18:58.695Z,100575.19
2023-01-20T22:21:25.561Z,100582.22
2023-01-20T22:23:53.500Z,100581.25
2023-01-20T22:26:20.135Z,100588.16
2023-01-20T22:28:46.661Z,100587.50
2023-01-20T22:31:17.658Z,100587.44
2023-01-20T22:33:44.117Z,100595.28
2023-01-20T22:36:10.579Z,100598.06
2023-01-20T22:38:36.927Z,100594.75
2023-01-20T22:41:08.374Z,100604.34
2023-01-20T22:43:35.358Z,100605.75
2023-01-20T22:46:02.959Z,100615.38
2023-01-20T22:48:31.729Z,100613.09
2023-01-20T22:51:13.041Z,100619.94
2023-01-20T22:53:39.983Z,100620.66
2023-01-20T22:56:09.696Z,100626.75
2023-01-20T22:58:37.114Z,100625.16
2023-01-20T23:01:03.689Z,100622.13
2023-01-20T23:03:30.189Z,100638.63
2023-01-20T23:05:59.868Z,100640.38
2023-01-20T23:08:28.390Z,100632.44
2023-01-20T23:11:01.637Z,100637.66
2023-01-20T23:13:31.140Z,100628.13
2023-01-20T23:15:57.846Z,100634.16
2023-01-20T23:18:25.114Z,100635.94
2023-01-20T23:20:53.337Z,100638.63
2023-01-20T23:23:21.550Z,100641.16
2023-01-20T23:25:47.929Z,100642.91
2023-01-20T23:28:14.614Z,100643.72
2023-01-20T23:30:41.078Z,100649.84
2023-01-20T23:33:08.358Z,100654.22
2023-01-20T23:35:38.791Z,100655.09
2023-01-20T23:38:07.043Z,100657.88
2023-01-20T23:40:34.744Z,100662.03
2023-01-20T23:43:01.773Z,100665.47
2023-01-20T23:45:28.791Z,100660.19
2023-01-20T23:47:55.515Z,100664.50
2023-01-20T23:50:21.944Z,100662.78
2023-01-20T23:52:48.354Z,100674.97
2023-01-20T23:55:14.771Z,100667.13
2023-01-20T23:57:41.166Z,100670.63
